Time;durP1;ratioP1;P1;durP2;ratioP2;P2;SDS_P1;SDS_P2;PMS_P1;PMS_P2;Temp;Humidity;BMP_temperature;BMP_pressure;BME280_temperature;BME280_humidity;BME280_pressure;Samples;Min_cycle;Max_cycle;Signal;HPM_P1;HPM_P2
2022/01/26 00:00:08;;;;;;;0.50;0.50;;;;;;;23.42;6.05;100745.34;4898670;28;20559;-76
2022/01/26 00:08:01;;;;;;;0.77;0.60;;;;;;;23.42;6.24;100747.22;4899488;29;20159;-75
2022/01/26 00:10:27;;;;;;;0.60;0.60;;;;;;;23.40;5.98;100747.50;4899307;29;20387;-76
2022/01/26 00:12:52;;;;;;;0.75;0.60;;;;;;;23.40;5.93;100752.97;4899103;29;20042;-76
2022/01/26 00:15:18;;;;;;;0.63;0.63;;;;;;;23.38;5.94;100749.66;4899162;29;20028;-75
2022/01/26 00:17:43;;;;;;;0.52;0.52;;;;;;;23.39;5.94;100737.69;4899701;29;20069;-75
2022/01/26 00:20:26;;;;;;;0.52;0.52;;;;;;;23.39;5.99;100740.41;4899032;29;20040;-76
2022/01/26 00:25:44;;;;;;;0.60;0.60;;;;;;;23.38;6.01;100730.56;4898931;29;20028;-74
2022/01/26 00:38:40;;;;;;;0.63;0.63;;;;;;;23.37;5.95;100720.75;4977540;28;20042;-76
2022/01/26 00:41:10;;;;;;;0.60;0.60;;;;;;;23.37;5.62;100718.03;4977040;28;20382;-76
2022/01/26 00:43:36;;;;;;;0.63;0.60;;;;;;;23.34;5.67;100713.09;4977046;28;20027;-76
2022/01/26 00:46:04;;;;;;;0.45;0.45;;;;;;;23.33;5.73;100700.53;4976979;28;20532;-76
2022/01/26 00:48:31;;;;;;;0.70;0.68;;;;;;;23.35;5.61;100706.56;4976773;28;20057;-77
2022/01/26 00:51:00;;;;;;;0.82;0.60;;;;;;;23.36;5.76;100707.38;4977221;28;20066;-76
2022/01/26 00:53:32;;;;;;;0.60;0.50;;;;;;;23.35;5.77;100703.84;4977926;28;20055;-76
2022/01/26 00:55:57;;;;;;;0.50;0.50;;;;;;;23.33;5.87;100713.38;4976900;28;20118;-76
2022/01/26 00:58:23;;;;;;;0.60;0.60;;;;;;;23.35;5.74;100712.03;4976762;28;20027;-76
2022/01/26 01:00:48;;;;;;;0.60;0.50;;;;;;;23.35;5.73;100712.03;4975581;28;20026;-76
2022/01/26 01:03:14;;;;;;;0.50;0.50;;;;;;;23.36;5.80;100708.19;4976703;28;20031;-76
2022/01/26 01:08:25;;;;;;;0.50;0.50;;;;;;;23.35;5.84;100712.03;4976978;28;20125;-76
2022/01/26 01:10:51;;;;;;;0.60;0.60;;;;;;;23.35;5.90;100717.47;4959423;28;20035;-77
2022/01/26 01:13:20;;;;;;;0.60;0.60;;;;;;;23.31;5.74;100710.09;4976866;28;20034;-77
2022/01/26 01:15:46;;;;;;;0.70;0.70;;;;;;;23.28;5.90;100713.34;4976939;28;20034;-76
2022/01/26 01:18:21;;;;;;;0.77;0.70;;;;;;;23.33;5.63;100707.91;4976629;28;20109;-76
2022/01/26 01:22:03;;;;;;;0.60;0.60;;;;;;;23.31;5.51;100710.91;4976432;28;20074;-75
2022/01/26 01:34:14;;;;;;;0.73;0.73;;;;;;;23.30;5.66;100681.16;4976475;28;20027;-76
2022/01/26 01:36:41;;;;;;;0.50;0.50;;;;;;;23.30;5.66;100681.16;4976358;28;20030;-76
2022/01/26 01:39:10;;;;;;;0.50;0.50;;;;;;;23.29;5.64;100676.81;4975952;28;20030;-76
2022/01/26 01:41:36;;;;;;;0.77;0.77;;;;;;;23.28;5.53;100678.69;4976310;28;20031;-76
2022/01/26 01:44:04;;;;;;;0.63;0.60;;;;;;;23.27;5.48;100674.34;4976309;28;20031;-76
2022/01/26 01:46:29;;;;;;;0.52;0.52;;;;;;;23.28;5.32;100666.97;4976042;28;20470;-75
2022/01/26 01:48:55;;;;;;;0.60;0.60;;;;;;;23.25;5.28;100662.91;4976343;28;20046;-77
2022/01/26 01:51:27;;;;;;;0.68;0.60;;;;;;;23.27;5.32;100665.31;4976060;28;20035;-76
2022/01/26 01:53:53;;;;;;;0.57;0.57;;;;;;;23.27;5.32;100657.16;4975909;28;20037;-77
2022/01/26 01:56:24;;;;;;;0.50;0.50;;;;;;;23.26;5.55;100659.06;4975997;28;20374;-77
2022/01/26 01:58:49;;;;;;;0.60;0.60;;;;;;;23.27;5.31;100658.00;4976069;28;20110;-76
2022/01/26 02:01:15;;;;;;;0.60;0.60;;;;;;;23.27;5.35;100652.53;4975560;28;20389;-76
2022/01/26 02:03:40;;;;;;;0.70;0.60;;;;;;;23.28;5.19;100661.53;4975826;28;20030;-76
2022/01/26 02:06:05;;;;;;;0.43;0.43;;;;;;;23.26;5.21;100661.78;4975734;28;20488;-76
2022/01/26 02:08:33;;;;;;;0.60;0.60;;;;;;;23.22;5.17;100641.63;4975749;28;20100;-75
2022/01/26 02:10:58;;;;;;;0.50;0.50;;;;;;;23.25;5.24;100635.63;4975759;28;20019;-76
2022/01/26 02:13:29;;;;;;;0.60;0.60;;;;;;;23.25;5.19;100631.00;4975751;28;20023;-75
2022/01/26 02:16:25;;;;;;;0.82;0.60;;;;;;;23.24;5.10;100620.34;4975423;28;20116;-76
2022/01/26 02:19:37;;;;;;;0.70;0.60;;;;;;;23.29;5.21;100620.38;4974766;28;20475;-75
2022/01/26 02:52:12;;;;;;;0.50;0.50;;;;;;;23.27;5.04;100594.44;4975194;28;20050;-77
2022/01/26 02:54:47;;;;;;;0.40;0.40;;;;;;;23.23;5.15;100589.53;4966771;28;20050;-76
2022/01/26 02:57:29;;;;;;;0.50;0.50;;;;;;;23.23;5.21;100592.28;4974665;28;20035;-76
2022/01/26 03:00:14;;;;;;;0.50;0.50;;;;;;;23.24;5.16;100599.34;4974612;28;20066;-76
2022/01/26 03:02:57;;;;;;;0.55;0.40;;;;;;;23.21;5.05;100599.06;4968917;28;20035;-76
2022/01/26 03:05:28;;;;;;;0.60;0.60;;;;;;;23.24;5.01;100601.25;4974828;28;20041;-76
2022/01/26 03:08:02;;;;;;;0.70;0.50;;;;;;;23.22;5.15;100597.97;4974867;28;20035;-76
2022/01/26 03:10:39;;;;;;;0.50;0.50;;;;;;;23.18;5.19;100585.97;4974901;28;20031;-76
2022/01/26 03:13:10;;;;;;;0.50;0.50;;;;;;;23.22;4.95;100590.63;4974876;28;20038;-76
2022/01/26 03:15:44;;;;;;;0.38;0.38;;;;;;;23.22;5.19;100597.97;4974898;28;20035;-76
2022/01/26 03:20:41;;;;;;;0.40;0.40;;;;;;;23.21;4.95;100590.88;4974745;28;20027;-76
2022/01/26 03:32:16;;;;;;;0.43;0.43;;;;;;;23.29;4.86;100579.47;4915084;29;19990;-75
2022/01/26 03:34:25;;;;;;;0.50;0.50;;;;;;;23.27;4.91;100578.91;4918538;29;20028;-76
2022/01/26 03:36:57;;;;;;;0.55;0.50;;;;;;;23.23;5.01;100558.72;4918811;29;20119;-76
2022/01/26 03:39:24;;;;;;;0.40;0.40;;;;;;;23.22;5.05;100563.34;4918791;29;20042;-77
2022/01/26 03:41:55;;;;;;;0.43;0.43;;;;;;;23.20;4.98;100562.00;4918687;29;20080;-76
2022/01/26 03:44:21;;;;;;;0.57;0.50;;;;;;;23.17;4.92;100549.69;4918740;29;20570;-76
2022/01/26 03:46:47;;;;;;;0.50;0.50;;;;;;;23.19;4.85;100546.72;4918709;29;20056;-76
2022/01/26 03:49:12;;;;;;;0.47;0.47;;;;;;;23.17;5.03;100546.16;4918429;29;20092;-77
2022/01/26 03:51:38;;;;;;;0.50;0.40;;;;;;;23.18;4.84;100536.88;4918505;29;20032;-76
2022/01/26 03:54:04;;;;;;;0.40;0.40;;;;;;;23.19;4.92;100539.34;4919117;29;20380;-76
2022/01/26 03:56:29;;;;;;;0.50;0.47;;;;;;;23.18;4.90;100524.09;4918619;29;20071;-75
2022/01/26 03:58:55;;;;;;;0.47;0.43;;;;;;;23.19;4.91;100517.53;4918422;29;20058;-76
2022/01/26 04:01:20;;;;;;;0.32;0.32;;;;;;;23.17;5.12;100516.19;4919408;29;20083;-76
2022/01/26 04:03:46;;;;;;;0.40;0.40;;;;;;;23.17;4.96;100519.72;4918441;29;20087;-75
2022/01/26 04:06:11;;;;;;;0.45;0.40;;;;;;;23.18;5.04;100515.91;4918347;29;20072;-76
2022/01/26 04:08:38;;;;;;;0.47;0.47;;;;;;;23.18;4.90;100509.63;4944715;29;20042;-76
2022/01/26 04:13:29;;;;;;;0.40;0.40;;;;;;;23.25;5.03;100502.03;4957587;29;20042;-76
2022/01/26 04:15:55;;;;;;;0.55;0.52;;;;;;;23.26;5.28;100490.03;4958408;29;20031;-76
2022/01/26 04:18:26;;;;;;;0.50;0.50;;;;;;;23.27;5.21;100494.41;4958855;29;20159;-76
2022/01/26 04:20:55;;;;;;;0.47;0.47;;;;;;;23.33;5.38;100495.22;4958751;29;20121;-75
2022/01/26 04:25:48;;;;;;;0.40;0.40;;;;;;;23.40;5.38;100493.88;4958699;29;20023;-75
2022/01/26 04:28:29;;;;;;;0.60;0.57;;;;;;;23.41;5.16;100479.13;4958838;29;20065;-75
2022/01/26 04:30:55;;;;;;;0.63;0.55;;;;;;;23.44;4.95;100475.06;4961415;29;20051;-79
2022/01/26 04:33:21;;;;;;;0.75;0.50;;;;;;;23.50;5.22;100475.88;4964720;29;20035;-78
2022/01/26 04:35:47;;;;;;;0.60;0.52;;;;;;;23.48;5.23;100454.31;4964886;29;20041;-75
2022/01/26 04:40:57;;;;;;;0.60;0.57;;;;;;;23.57;5.07;100457.31;4984492;28;20026;-78
2022/01/26 04:43:26;;;;;;;1.02;0.50;;;;;;;23.60;5.17;100446.69;4985291;28;20421;-80
2022/01/26 04:45:52;;;;;;;3.17;0.50;;;;;;;23.62;5.45;100444.50;4977757;28;20027;-78
2022/01/26 04:48:19;;;;;;;1.10;0.50;;;;;;;23.62;5.01;100443.69;4976936;28;20034;-78
2022/01/26 04:50:44;;;;;;;0.40;0.40;;;;;;;23.66;5.27;100444.75;4977414;28;20070;-78
2022/01/26 04:53:10;;;;;;;0.50;0.50;;;;;;;23.68;5.33;100425.41;4977681;28;20030;-78
2022/01/26 04:55:35;;;;;;;0.50;0.50;;;;;;;23.69;5.24;100421.59;4977653;28;20529;-76
2022/01/26 04:58:01;;;;;;;0.60;0.50;;;;;;;23.70;5.33;100423.22;4977536;28;20076;-78
2022/01/26 05:00:26;;;;;;;0.50;0.50;;;;;;;23.72;5.46;100416.41;4976766;28;20023;-78
2022/01/26 05:02:51;;;;;;;0.40;0.40;;;;;;;23.75;5.29;100412.28;4977200;28;20026;-78
2022/01/26 05:05:17;;;;;;;0.30;0.30;;;;;;;23.75;5.34;100415.00;4976966;28;20026;-78
2022/01/26 05:07:43;;;;;;;0.45;0.40;;;;;;;23.78;5.07;100411.75;4977659;28;20034;-77
2022/01/26 05:10:09;;;;;;;0.47;0.40;;;;;;;23.79;5.46;100411.47;4977224;28;20389;-79
2022/01/26 05:12:35;;;;;;;2.08;0.43;;;;;;;23.79;5.51;100397.81;4977921;28;20019;-78
2022/01/26 05:15:01;;;;;;;0.50;0.50;;;;;;;23.79;5.11;100400.56;4977174;28;20085;-79
2022/01/26 05:17:26;;;;;;;0.40;0.40;;;;;;;23.83;5.15;100402.78;4976578;28;20035;-78
2022/01/26 05:19:56;;;;;;;0.47;0.47;;;;;;;23.88;5.80;100397.31;4976976;28;20026;-79
2022/01/26 05:22:22;;;;;;;0.40;0.40;;;;;;;23.89;5.58;100382.56;4980117;28;20103;-78
2022/01/26 05:24:47;;;;;;;1.27;0.70;;;;;;;23.88;5.45;100389.13;4982207;28;20027;-78
2022/01/26 05:27:13;;;;;;;0.80;0.50;;;;;;;23.92;5.57;100373.81;4963270;28;20469;-79
2022/01/26 05:29:38;;;;;;;1.88;0.60;;;;;;;23.88;5.44;100362.63;4977690;28;20046;-77
2022/01/26 05:32:04;;;;;;;0.55;0.50;;;;;;;23.88;5.28;100370.00;4976671;28;20038;-75
2022/01/26 05:34:29;;;;;;;0.70;0.60;;;;;;;23.92;5.42;100361.00;4977245;28;20073;-75
2022/01/26 05:36:55;;;;;;;1.15;0.60;;;;;;;23.93;5.54;100364.53;4959646;28;20370;-75
2022/01/26 05:39:20;;;;;;;1.38;0.70;;;;;;;23.95;5.73;100354.97;4977732;28;20046;-76
2022/01/26 05:41:45;;;;;;;0.65;0.60;;;;;;;23.99;5.42;100355.22;4976239;28;20458;-76
2022/01/26 05:44:11;;;;;;;0.82;0.77;;;;;;;24.00;5.47;100346.75;4976153;28;20026;-76
2022/01/26 05:46:44;;;;;;;0.82;0.60;;;;;;;24.03;5.76;100353.59;4976417;28;20027;-76
2022/01/26 05:49:10;;;;;;;0.45;0.40;;;;;;;24.01;5.66;100344.88;4978351;28;20059;-75
2022/01/26 05:51:36;;;;;;;0.50;0.50;;;;;;;24.03;5.58;100339.94;4980972;28;20026;-76
2022/01/26 05:54:02;;;;;;;0.63;0.57;;;;;;;24.05;5.91;100336.94;4977576;28;20035;-75
2022/01/26 05:56:28;;;;;;;0.60;0.60;;;;;;;24.05;5.94;100335.00;4978338;28;20027;-75
2022/01/26 05:58:53;;;;;;;0.60;0.60;;;;;;;24.08;5.82;100336.38;4979134;28;20049;-75
2022/01/26 06:01:20;;;;;;;0.75;0.65;;;;;;;24.11;5.88;100330.34;4978795;28;20023;-76
2022/01/26 06:03:45;;;;;;;0.50;0.50;;;;;;;24.13;5.84;100336.38;4980204;28;20070;-75
2022/01/26 06:06:11;;;;;;;0.85;0.60;;;;;;;24.11;5.74;100314.81;4981521;28;20046;-75
2022/01/26 06:08:37;;;;;;;0.50;0.50;;;;;;;24.16;5.96;100317.50;4983084;28;20046;-76
2022/01/26 06:11:03;;;;;;;0.80;0.60;;;;;;;24.18;5.90;100309.84;4986712;28;20469;-76
2022/01/26 06:13:29;;;;;;;0.50;0.50;;;;;;;24.16;6.09;100308.47;4988114;28;20054;-77
2022/01/26 06:15:54;;;;;;;0.93;0.60;;;;;;;24.24;6.12;100299.72;4991983;28;20023;-75
2022/01/26 06:18:31;;;;;;;0.98;0.70;;;;;;;24.24;6.12;100290.72;5136540;27;20321;-75
2022/01/26 06:20:56;;;;;;;0.90;0.75;;;;;;;24.24;5.95;100282.53;5115149;28;20065;-76
2022/01/26 06:23:25;;;;;;;1.38;0.73;;;;;;;24.32;6.05;100287.41;5114346;28;20479;-76
2022/01/26 06:25:58;;;;;;;0.90;0.80;;;;;;;24.30;6.31;100267.72;5114685;28;20042;-76
2022/01/26 06:28:26;;;;;;;1.13;0.75;;;;;;;24.34;6.31;100274.28;5116517;28;20042;-76
2022/01/26 06:30:55;;;;;;;1.45;0.80;;;;;;;24.37;6.13;100279.97;5115768;28;20087;-75
2022/01/26 06:33:21;;;;;;;0.65;0.60;;;;;;;24.34;6.19;100290.66;5115407;28;20081;-75
2022/01/26 06:35:46;;;;;;;0.63;0.60;;;;;;;24.39;6.06;100279.69;5117811;28;20024;-75
2022/01/26 06:38:13;;;;;;;0.50;0.50;;;;;;;24.43;6.12;100271.75;5117094;28;20045;-74
2022/01/26 06:40:39;;;;;;;0.52;0.50;;;;;;;24.48;6.53;100274.44;5117685;28;20092;-74
2022/01/26 06:43:10;;;;;;;0.75;0.50;;;;;;;24.51;6.62;100280.16;5126440;28;20024;-75
2022/01/26 06:45:41;;;;;;;0.60;0.40;;;;;;;24.51;6.44;100274.69;5127516;28;20051;-75
2022/01/26 06:50:51;;;;;;;0.52;0.52;;;;;;;24.55;6.67;100259.41;5123870;28;20104;-74
2022/01/26 06:53:16;;;;;;;1.45;0.55;;;;;;;24.60;6.74;100261.28;5124373;28;20023;-77
2022/01/26 06:55:42;;;;;;;0.80;0.60;;;;;;;24.68;6.84;100252.47;5132943;27;20008;-76
2022/01/26 06:58:07;;;;;;;2.38;0.75;;;;;;;24.74;6.57;100245.84;5130826;28;20057;-75
2022/01/26 07:00:33;;;;;;;0.47;0.40;;;;;;;24.79;6.69;100242.28;5124710;28;20024;-75
2022/01/26 07:02:58;;;;;;;0.73;0.52;;;;;;;24.85;6.82;100243.88;5124447;28;20068;-75
2022/01/26 07:05:24;;;;;;;0.73;0.50;;;;;;;24.88;6.69;100243.28;5122790;28;20376;-75
2022/01/26 07:07:49;;;;;;;0.73;0.57;;;;;;;24.97;6.66;100248.13;5122357;28;20031;-75
2022/01/26 07:10:14;;;;;;;1.92;0.50;;;;;;;24.86;6.76;100229.09;5123373;28;20068;-77
2022/01/26 07:12:40;;;;;;;0.70;0.70;;;;;;;24.91;6.81;100234.50;5124953;28;20492;-76
2022/01/26 07:23:18;;;;;;;0.80;0.70;;;;;;;25.08;7.48;100222.34;5120203;28;20069;-76
2022/01/26 07:25:44;;;;;;;0.60;0.60;;;;;;;25.10;6.99;100231.06;5115329;28;20036;-76
2022/01/26 07:28:09;;;;;;;1.02;0.52;;;;;;;25.17;7.36;100217.06;5106898;28;20386;-75
2022/01/26 07:30:35;;;;;;;0.63;0.60;;;;;;;25.15;7.06;100217.34;5097137;28;20024;-75
2022/01/26 07:33:01;;;;;;;0.63;0.60;;;;;;;25.14;7.34;100210.22;5097764;28;20374;-75
2022/01/26 07:35:27;;;;;;;0.60;0.40;;;;;;;25.20;7.48;100198.16;5096897;28;20077;-75
2022/01/26 07:37:57;;;;;;;0.45;0.32;;;;;;;25.19;7.40;100201.97;5086558;28;20020;-75
2022/01/26 07:40:22;;;;;;;1.42;0.70;;;;;;;25.27;7.28;100197.84;5077047;28;20077;-75
2022/01/26 07:42:47;;;;;;;0.40;0.40;;;;;;;25.27;7.74;100200.56;5076591;28;20389;-74
2022/01/26 07:45:13;;;;;;;0.50;0.40;;;;;;;25.29;7.35;100199.16;5074937;28;20072;-75
2022/01/26 07:47:38;;;;;;;0.40;0.40;;;;;;;25.36;7.34;100203.47;5076294;28;20036;-74
2022/01/26 07:50:07;;;;;;;0.90;0.40;;;;;;;25.31;7.59;100198.88;5075802;28;20028;-74
2022/01/26 07:52:37;;;;;;;0.63;0.50;;;;;;;25.21;7.79;100193.47;5077561;28;20035;-74
2022/01/26 07:55:07;;;;;;;1.63;0.60;;;;;;;25.29;7.71;100192.88;5077364;28;20024;-74
2022/01/26 07:57:32;;;;;;;0.52;0.50;;;;;;;25.35;7.41;100193.63;5077041;28;20123;-74
2022/01/26 07:59:57;;;;;;;1.67;0.60;;;;;;;25.37;7.57;100188.69;5075845;28;20471;-74
2022/01/26 08:02:23;;;;;;;0.70;0.70;;;;;;;25.36;7.86;100189.81;5075978;28;20138;-74
2022/01/26 08:04:48;;;;;;;1.98;1.10;;;;;;;25.37;7.55;100183.22;5075571;28;20104;-75
2022/01/26 08:07:14;;;;;;;1.52;1.10;;;;;;;25.43;7.59;100190.25;5075601;28;20081;-75
2022/01/26 08:09:44;;;;;;;2.85;1.58;;;;;;;25.41;7.97;100187.00;5076022;28;20078;-74
2022/01/26 08:12:14;;;;;;;1.80;1.27;;;;;;;25.41;7.76;100187.81;5075960;28;20078;-75
2022/01/26 08:14:40;;;;;;;1.95;1.30;;;;;;;25.47;7.98;100180.34;5076251;28;20028;-75
2022/01/26 08:17:06;;;;;;;1.67;1.30;;;;;;;25.47;7.97;100180.34;5075361;28;20059;-75
2022/01/26 08:19:31;;;;;;;3.28;1.30;;;;;;;25.54;7.90;100180.00;5074413;28;20092;-74
2022/01/26 08:22:00;;;;;;;3.80;1.63;;;;;;;25.56;8.02;100167.66;5075919;28;20359;-75
2022/01/26 08:24:27;;;;;;;3.40;2.25;;;;;;;25.58;8.13;100170.91;5075113;28;20070;-74
2022/01/26 08:26:55;;;;;;;5.75;2.20;;;;;;;25.55;8.29;100176.16;5056685;28;20044;-74
2022/01/26 08:29:42;;;;;;;3.42;1.75;;;;;;;25.58;8.38;100168.19;5075089;28;20020;-74
2022/01/26 08:32:07;;;;;;;2.25;1.50;;;;;;;25.57;8.20;100163.81;5075217;28;20141;-75
2022/01/26 08:34:33;;;;;;;1.65;1.38;;;;;;;25.58;8.17;100168.19;5074528;28;20058;-74
2022/01/26 08:36:58;;;;;;;3.00;1.30;;;;;;;25.55;8.07;100165.22;5077234;28;20115;-74
2022/01/26 08:39:24;;;;;;;2.28;1.05;;;;;;;25.56;8.24;100156.72;5094471;28;20028;-74
2022/01/26 08:41:49;;;;;;;2.90;1.40;;;;;;;25.59;8.26;100156.13;5094494;28;20032;-75
2022/01/26 08:44:15;;;;;;;2.38;1.73;;;;;;;25.54;8.50;100153.44;5096010;28;20020;-75
2022/01/26 08:46:40;;;;;;;3.72;2.20;;;;;;;25.52;8.43;100152.13;5096593;28;20035;-74
2022/01/26 08:49:05;;;;;;;4.00;1.98;;;;;;;25.57;8.24;100147.41;5096049;28;20470;-75
2022/01/26 08:51:31;;;;;;;4.40;2.33;;;;;;;25.53;8.34;100149.09;5094966;28;20111;-76
2022/01/26 08:53:56;;;;;;;3.50;2.08;;;;;;;25.51;8.62;100142.28;5095017;28;20047;-76
2022/01/26 08:56:23;;;;;;;4.18;2.10;;;;;;;25.57;8.69;100135.63;5094351;28;20035;-74
2022/01/26 08:58:48;;;;;;;3.85;1.73;;;;;;;25.50;8.75;100136.00;5094390;28;20028;-74
2022/01/26 09:01:13;;;;;;;2.38;1.50;;;;;;;25.48;8.69;100141.75;5094223;28;20058;-75
2022/01/26 09:03:39;;;;;;;4.28;1.60;;;;;;;25.56;8.65;100134.84;5094062;28;20028;-74
2022/01/26 09:06:07;;;;;;;2.40;1.45;;;;;;;25.54;8.81;100130.75;5094598;28;20023;-74
2022/01/26 09:08:34;;;;;;;2.60;1.30;;;;;;;25.53;8.92;100126.41;5094604;28;20020;-74
2022/01/26 09:11:01;;;;;;;2.42;1.13;;;;;;;25.53;8.88;100123.66;5094392;28;20362;-74
2022/01/26 09:13:33;;;;;;;2.13;1.20;;;;;;;25.53;8.66;100121.75;5094542;28;20039;-75
2022/01/26 09:15:59;;;;;;;1.45;1.00;;;;;;;25.61;8.70;100123.81;5094359;28;20043;-74
2022/01/26 09:18:35;;;;;;;2.63;1.00;;;;;;;25.56;8.78;100117.59;5092493;28;20074;-74
2022/01/26 09:21:00;;;;;;;0.70;0.65;;;;;;;25.56;8.77;100117.59;5093979;28;20459;-74
2022/01/26 09:23:26;;;;;;;1.00;0.70;;;;;;;25.61;8.79;100115.63;5095385;28;20074;-74
2022/01/26 09:25:51;;;;;;;1.15;0.70;;;;;;;25.60;8.92;100113.16;5094614;28;20031;-74
2022/01/26 09:28:16;;;;;;;1.30;0.77;;;;;;;25.66;8.97;100107.34;5094383;28;20027;-74
2022/01/26 09:30:42;;;;;;;0.90;0.60;;;;;;;25.59;8.83;100097.84;5094539;28;20027;-74
2022/01/26 09:33:07;;;;;;;1.33;0.65;;;;;;;25.62;8.78;100095.34;5094318;28;20387;-74
2022/01/26 09:35:33;;;;;;;0.65;0.50;;;;;;;25.66;8.98;100101.03;5094133;28;20035;-74
2022/01/26 09:37:58;;;;;;;0.90;0.70;;;;;;;25.58;8.83;100079.81;5085760;28;20078;-73
2022/01/26 09:40:23;;;;;;;0.88;0.70;;;;;;;25.61;8.81;100077.31;5074919;28;20016;-75
2022/01/26 09:42:49;;;;;;;0.40;0.40;;;;;;;25.68;8.85;100077.75;5073706;28;20017;-74
2022/01/26 09:45:15;;;;;;;0.50;0.47;;;;;;;25.64;9.08;100079.44;5055850;28;20054;-75
2022/01/26 09:47:41;;;;;;;0.50;0.43;;;;;;;25.62;9.29;100064.44;5073824;28;20029;-74
2022/01/26 09:50:06;;;;;;;1.67;1.05;;;;;;;25.63;9.18;100064.13;5073595;28;20473;-74
2022/01/26 09:52:36;;;;;;;1.35;0.98;;;;;;;25.65;9.00;100066.59;5073270;28;20066;-74
2022/01/26 09:55:02;;;;;;;1.50;1.02;;;;;;;25.68;9.35;100061.31;5073765;28;20040;-75
2022/01/26 09:57:28;;;;;;;0.85;0.65;;;;;;;25.55;9.36;100064.78;5073658;28;20063;-75
2022/01/26 09:59:54;;;;;;;0.93;0.60;;;;;;;25.58;9.44;100060.66;5073383;28;20025;-74
2022/01/26 10:02:24;;;;;;;0.40;0.40;;;;;;;25.64;9.42;100054.00;5073579;28;20024;-75
2022/01/26 10:04:59;;;;;;;0.70;0.60;;;;;;;25.66;9.36;100066.28;5073503;28;20020;-74
2022/01/26 10:15:39;;;;;;;0.65;0.65;;;;;;;25.70;9.55;100046.50;4992028;28;20105;-75
2022/01/26 10:18:16;;;;;;;1.48;0.60;;;;;;;25.68;9.86;100050.38;4991352;28;20063;-73
2022/01/26 10:20:57;;;;;;;2.38;0.65;;;;;;;25.66;10.20;100038.09;4991379;28;20038;-74
2022/01/26 10:23:38;;;;;;;1.60;0.40;;;;;;;25.71;9.99;100038.00;4991477;28;20031;-74
2022/01/26 10:26:14;;;;;;;0.90;0.52;;;;;;;25.68;10.44;100028.50;4991282;28;20030;-74
2022/01/26 10:28:51;;;;;;;0.85;0.52;;;;;;;25.74;10.14;100026.47;4991974;28;20050;-74
2022/01/26 10:31:23;;;;;;;0.88;0.60;;;;;;;25.72;10.29;100020.50;4991659;28;20065;-72
2022/01/26 10:34:02;;;;;;;0.95;0.55;;;;;;;25.73;10.39;100022.09;4991231;28;20046;-72
2022/01/26 10:36:48;;;;;;;5.40;1.90;;;;;;;25.79;10.16;100015.44;4991210;28;20370;-73
2022/01/26 10:39:42;;;;;;;4.68;2.05;;;;;;;25.76;10.52;100005.09;5007905;28;20084;-72
2022/01/26 10:42:11;;;;;;;1.52;0.95;;;;;;;25.81;10.64;100015.94;5010960;28;20096;-73
2022/01/26 10:44:43;;;;;;;1.30;0.80;;;;;;;25.88;10.42;100009.28;4995325;28;20034;-72
2022/01/26 10:47:09;;;;;;;2.17;1.05;;;;;;;25.95;10.59;99991.38;5043589;28;20068;-74
2022/01/26 10:52:41;;;;;;;1.75;1.10;;;;;;;25.91;10.51;99993.09;5073204;28;20052;-73
2022/01/26 10:55:07;;;;;;;1.50;0.75;;;;;;;26.00;10.47;99990.50;5072769;28;20131;-73
2022/01/26 10:57:34;;;;;;;1.58;0.98;;;;;;;26.05;10.53;99988.47;5072413;28;20202;-74
2022/01/26 11:00:01;;;;;;;2.67;0.80;;;;;;;26.14;10.46;99979.56;5072952;28;20028;-73
2022/01/26 11:02:30;;;;;;;1.83;0.60;;;;;;;26.11;10.89;99975.50;5072766;28;20043;-73
2022/01/26 11:04:55;;;;;;;0.77;0.60;;;;;;;26.00;10.92;99966.66;5075903;28;20029;-74
2022/01/26 11:07:29;;;;;;;2.53;0.57;;;;;;;26.01;11.05;99968.31;5076451;28;20394;-74
2022/01/26 11:09:54;;;;;;;3.50;0.60;;;;;;;26.02;10.87;99945.25;5075484;28;20032;-74
2022/01/26 11:12:28;;;;;;;1.67;0.73;;;;;;;26.03;10.72;99952.38;5078085;28;20032;-74
2022/01/26 11:14:58;;;;;;;4.45;0.60;;;;;;;26.08;10.92;99942.44;5076440;28;20067;-75
2022/01/26 11:17:28;;;;;;;2.95;0.60;;;;;;;26.17;10.92;99935.16;5076529;28;20059;-74
2022/01/26 11:19:55;;;;;;;2.70;1.33;;;;;;;26.13;11.36;99934.94;5076437;28;20536;-73
2022/01/26 11:22:26;;;;;;;5.90;1.90;;;;;;;26.07;11.31;99922.47;5075094;28;20035;-74
2022/01/26 11:24:52;;;;;;;3.28;1.20;;;;;;;26.17;11.45;99911.31;5076874;28;20033;-74
2022/01/26 11:27:18;;;;;;;3.90;1.70;;;;;;;26.18;11.70;99910.22;5077108;28;20025;-75
2022/01/26 11:29:47;;;;;;;3.72;1.40;;;;;;;26.12;11.69;99910.59;5076035;28;20455;-74
2022/01/26 11:32:29;;;;;;;5.38;2.13;;;;;;;26.16;11.87;99906.13;5076161;28;20477;-73
2022/01/26 11:34:55;;;;;;;8.05;2.33;;;;;;;26.17;12.03;99897.63;5076230;28;20039;-74
2022/01/26 11:37:59;;;;;;;3.95;1.40;;;;;;;26.22;11.58;99886.56;5076325;28;20024;-74
2022/01/26 11:46:04;;;;;;;;;;;;;;;26.44;11.55;99863.13;5096339;28;20394;-72
2022/01/26 11:48:30;;;;;;;7.90;2.72;;;;;;;26.29;11.95;99847.81;5096283;28;19960;-74
2022/01/26 11:51:00;;;;;;;3.88;1.42;;;;;;;26.29;11.71;99847.00;5096672;28;20024;-74
2022/01/26 11:53:26;;;;;;;3.95;1.40;;;;;;;26.21;11.78;99832.09;5096243;28;20050;-73
2022/01/26 11:55:59;;;;;;;3.25;1.30;;;;;;;26.21;11.90;99823.88;5094848;28;20068;-73
2022/01/26 11:58:29;;;;;;;2.47;0.80;;;;;;;26.24;12.05;99818.59;5095753;28;20036;-73
2022/01/26 12:03:43;;;;;;;2.08;0.73;;;;;;;26.28;12.16;99810.56;5095749;28;20374;-73
2022/01/26 12:06:17;;;;;;;3.47;1.13;;;;;;;26.23;12.10;99810.69;5095562;28;20032;-73
2022/01/26 12:08:42;;;;;;;1.85;0.90;;;;;;;26.27;12.10;99800.75;5096000;28;20393;-73
2022/01/26 12:11:11;;;;;;;0.82;0.63;;;;;;;26.17;12.13;99793.56;5094254;28;20025;-74
2022/01/26 12:13:38;;;;;;;2.10;0.93;;;;;;;26.21;12.03;99796.50;5096348;28;20061;-75
2022/01/26 12:16:16;;;;;;;2.28;0.90;;;;;;;26.23;12.22;99791.50;5093824;28;20027;-74
2022/01/26 12:18:50;;;;;;;2.08;1.00;;;;;;;26.25;12.23;99783.81;5094861;28;20056;-73
2022/01/26 12:38:18;;;;;;;1.55;0.60;;;;;;;26.17;12.73;99735.25;5088765;28;20427;-72
2022/01/26 12:43:39;;;;;;;2.03;0.50;;;;;;;26.25;12.46;99726.31;5074397;28;20074;-72
2022/01/26 12:46:06;;;;;;;0.73;0.50;;;;;;;26.27;12.66;99726.81;5074157;28;20059;-72
2022/01/26 12:48:34;;;;;;;0.50;0.40;;;;;;;26.22;12.61;99714.03;5074020;28;20033;-72
2022/01/26 12:51:00;;;;;;;0.45;0.40;;;;;;;26.31;12.36;99713.31;5074155;28;20115;-72
2022/01/26 12:53:26;;;;;;;1.92;0.35;;;;;;;26.24;12.60;99716.47;5072931;28;20102;-74
2022/01/26 12:55:56;;;;;;;0.75;0.55;;;;;;;26.16;12.76;99703.50;5073780;28;20025;-74
2022/01/26 12:58:33;;;;;;;0.70;0.45;;;;;;;26.18;13.02;99679.34;5074606;28;20107;-74
2022/01/26 13:01:08;;;;;;;0.40;0.40;;;;;;;26.16;13.06;99692.53;5072737;28;20033;-72
2022/01/26 13:03:39;;;;;;;1.55;0.60;;;;;;;26.21;13.02;99684.22;5073895;28;20409;-73
2022/01/26 13:06:14;;;;;;;2.80;0.40;;;;;;;26.18;12.90;99671.13;5073492;28;20555;-73
2022/01/26 13:09:02;;;;;;;1.65;0.40;;;;;;;26.09;13.30;99662.03;5073940;28;20122;-74
2022/01/26 13:11:34;;;;;;;2.08;0.90;;;;;;;26.30;13.23;99660.47;5073580;28;20021;-73
2022/01/26 13:14:18;;;;;;;0.85;0.40;;;;;;;26.26;13.31;99661.38;5072228;28;20059;-73
2022/01/26 13:22:44;;;;;;;1.95;0.63;;;;;;;26.39;12.96;99652.31;5073948;28;20025;-74
2022/01/26 13:25:52;;;;;;;0.88;0.60;;;;;;;26.45;12.94;99642.03;5073457;28;20486;-73
2022/01/26 13:28:31;;;;;;;0.52;0.40;;;;;;;26.31;13.24;99633.88;5069108;28;20082;-73
2022/01/26 13:42:17;;;;;;;0.65;0.40;;;;;;;26.31;12.99;99612.75;5093404;28;20043;-73
2022/01/26 13:52:23;;;;;;;1.13;0.30;;;;;;;26.22;13.22;99584.50;5092543;28;20132;-72
2022/01/26 13:55:04;;;;;;;1.65;0.35;;;;;;;26.02;13.31;99583.88;5093272;28;20036;-71
2022/01/26 14:00:06;;;;;;;0.30;0.30;;;;;;;26.00;13.30;99558.75;5094073;28;20032;-73
2022/01/26 14:02:33;;;;;;;0.30;0.30;;;;;;;26.07;13.36;99561.03;5094243;28;20062;-73
2022/01/26 14:04:58;;;;;;;0.20;0.20;;;;;;;26.07;13.29;99562.97;5093891;28;20447;-73
2022/01/26 14:07:24;;;;;;;1.13;0.28;;;;;;;26.08;13.21;99548.16;5094234;28;20035;-73
2022/01/26 14:09:49;;;;;;;0.32;0.32;;;;;;;26.03;13.11;99538.16;5094318;28;20031;-74
2022/01/26 14:12:20;;;;;;;0.28;0.20;;;;;;;26.11;13.29;99542.06;5093493;28;20024;-73
2022/01/26 14:14:52;;;;;;;0.30;0.30;;;;;;;26.09;13.32;99536.09;5093781;28;20056;-73
2022/01/26 14:17:54;;;;;;;0.30;0.22;;;;;;;26.03;13.37;99530.75;5093911;28;20044;-73
2022/01/26 14:25:29;;;;;;;1.08;0.20;;;;;;;26.01;13.21;99516.56;5093504;28;20454;-73